Time;durP1;ratioP1;P1;durP2;ratioP2;P2;SDS_P1;SDS_P2;PMS_P1;PMS_P2;Temp;Humidity;BMP_temperature;BMP_pressure;BME280_temperature;BME280_humidity;BME280_pressure;Samples;Min_cycle;Max_cycle;Signal;HPM_P1;HPM_P2
2022/01/08 00:02:10;;;;;;;;;;;22.30;51.70;;;;;;5074060;28;19938;-69
2022/01/08 00:04:35;;;;;;;;;;;22.40;51.60;;;;;;5075983;28;19918;-69
2022/01/08 00:07:01;;;;;;;;;;;22.30;51.50;;;;;;5072179;28;19917;-69
2022/01/08 00:09:26;;;;;;;;;;;22.40;51.40;;;;;;5076576;28;20346;-69
2022/01/08 00:11:52;;;;;;;;;;;22.40;51.30;;;;;;5077771;28;20026;-71
2022/01/08 00:14:21;;;;;;;;;;;22.40;51.40;;;;;;5081199;28;19920;-70
2022/01/08 00:16:46;;;;;;;;;;;22.50;51.30;;;;;;5081974;28;19912;-68
2022/01/08 00:19:12;;;;;;;;;;;22.50;51.20;;;;;;5082606;28;19920;-69
2022/01/08 00:21:37;;;;;;;;;;;22.50;51.20;;;;;;5082762;28;20566;-69
2022/01/08 00:24:03;;;;;;;;;;;22.50;51.00;;;;;;5082503;28;20379;-68
2022/01/08 00:26:28;;;;;;;;;;;22.40;51.00;;;;;;5080847;28;20114;-70
2022/01/08 00:28:54;;;;;;;;;;;22.40;51.10;;;;;;5083133;28;19989;-69
2022/01/08 00:31:19;;;;;;;;;;;22.40;51.10;;;;;;5080494;28;19919;-71
2022/01/08 00:33:47;;;;;;;;;;;22.40;50.90;;;;;;5081577;28;19927;-70
2022/01/08 00:36:13;;;;;;;;;;;22.40;51.00;;;;;;5077938;28;19920;-70
2022/01/08 00:38:38;;;;;;;;;;;22.40;51.10;;;;;;5076598;28;19920;-70
2022/01/08 00:41:04;;;;;;;;;;;22.40;51.00;;;;;;5080972;28;19986;-70
2022/01/08 00:43:29;;;;;;;;;;;22.40;51.00;;;;;;5079795;28;20555;-69
2022/01/08 00:45:55;;;;;;;;;;;22.40;51.00;;;;;;5079367;28;19920;-70
2022/01/08 00:48:20;;;;;;;;;;;22.40;51.10;;;;;;5078930;28;19920;-69
2022/01/08 00:50:46;;;;;;;;;;;22.40;51.00;;;;;;5079169;28;19916;-70
2022/01/08 00:53:12;;;;;;;;;;;22.40;51.00;;;;;;5077842;28;19916;-70
2022/01/08 00:55:37;;;;;;;;;;;22.40;51.00;;;;;;5079625;28;19927;-69
2022/01/08 00:58:02;;;;;;;;;;;22.40;50.90;;;;;;5080356;28;19916;-69
2022/01/08 01:00:28;;;;;;;;;;;22.40;50.90;;;;;;5077874;28;19916;-73
2022/01/08 01:02:53;;;;;;;;;;;22.40;50.90;;;;;;5080148;28;20006;-69
2022/01/08 01:05:20;;;;;;;;;;;22.40;50.90;;;;;;5082146;28;19927;-68
2022/01/08 01:07:46;;;;;;;;;;;22.40;50.80;;;;;;5078070;28;19939;-69
2022/01/08 01:10:11;;;;;;;;;;;22.40;50.80;;;;;;5078479;28;19916;-69
2022/01/08 01:12:37;;;;;;;;;;;22.40;50.80;;;;;;5072988;28;19927;-68
2022/01/08 01:15:03;;;;;;;;;;;22.40;50.70;;;;;;5076871;28;20563;-71
2022/01/08 01:17:29;;;;;;;;;;;22.50;50.70;;;;;;5073173;28;19920;-72
2022/01/08 01:19:54;;;;;;;;;;;22.50;50.60;;;;;;5081123;28;19908;-69
2022/01/08 01:22:24;;;;;;;;;;;22.50;50.70;;;;;;5079670;28;20315;-68
2022/01/08 01:24:51;;;;;;;;;;;22.50;50.70;;;;;;5076872;28;19950;-69
2022/01/08 01:29:59;;;;;;;;;;;22.50;50.60;;;;;;5078448;28;20720;-69
2022/01/08 01:43:37;;;;;;;;;;;22.30;50.50;;;;;;5083788;28;19937;-68
2022/01/08 01:48:47;;;;;;;;;;;22.30;50.50;;;;;;5087441;28;20351;-69
2022/01/08 01:51:22;;;;;;;;;;;22.30;50.60;;;;;;5078577;28;19916;-69
2022/01/08 01:53:48;;;;;;;;;;;22.20;50.60;;;;;;5086779;28;20478;-68
2022/01/08 01:56:17;;;;;;;;;;;22.20;50.70;;;;;;5089423;28;19917;-68
2022/01/08 01:58:43;;;;;;;;;;;22.10;50.80;;;;;;5087460;28;19930;-68
2022/01/08 02:01:09;;;;;;;;;;;22.10;50.90;;;;;;5085736;28;20309;-68
2022/01/08 02:03:35;;;;;;;;;;;22.10;51.00;;;;;;5087755;28;20027;-69
2022/01/08 02:06:00;;;;;;;;;;;22.10;51.10;;;;;;5083658;28;20417;-68
2022/01/08 02:08:27;;;;;;;;;;;22.10;51.10;;;;;;5101654;28;19912;-68
2022/01/08 02:10:53;;;;;;;;;;;22.10;51.10;;;;;;5088863;28;19912;-69
2022/01/08 02:13:22;;;;;;;;;;;22.10;51.00;;;;;;5089843;28;20481;-68
2022/01/08 02:15:51;;;;;;;;;;;22.00;51.00;;;;;;5090556;28;19956;-68
2022/01/08 02:18:17;;;;;;;;;;;22.00;50.90;;;;;;5088143;28;20412;-68
2022/01/08 02:20:42;;;;;;;;;;;22.00;51.40;;;;;;5089711;28;19912;-67
2022/01/08 02:23:08;;;;;;;;;;;22.00;50.80;;;;;;5087930;28;20649;-69
2022/01/08 02:25:34;;;;;;;;;;;22.00;50.80;;;;;;5079350;28;19919;-69
2022/01/08 02:28:02;;;;;;;;;;;22.00;50.80;;;;;;5079550;28;20316;-68
2022/01/08 02:30:28;;;;;;;;;;;22.00;50.90;;;;;;5082667;28;19938;-69
2022/01/08 02:32:54;;;;;;;;;;;21.90;51.00;;;;;;5079967;28;20003;-68
2022/01/08 02:35:21;;;;;;;;;;;21.90;51.10;;;;;;5077189;28;22314;-68
2022/01/08 02:37:47;;;;;;;;;;;21.90;51.20;;;;;;5077835;28;20365;-69
2022/01/08 02:40:13;;;;;;;;;;;21.90;51.30;;;;;;5078768;28;19951;-68
2022/01/08 02:42:49;;;;;;;;;;;21.90;51.20;;;;;;5078883;28;19932;-69
2022/01/08 02:45:15;;;;;;;;;;;21.90;51.30;;;;;;5075361;28;20342;-68
2022/01/08 02:47:40;;;;;;;;;;;21.80;51.40;;;;;;5081191;28;19952;-68
2022/01/08 02:50:06;;;;;;;;;;;21.80;51.50;;;;;;5085321;28;19961;-68
2022/01/08 02:52:31;;;;;;;;;;;21.80;51.40;;;;;;5083775;28;19974;-69
2022/01/08 02:54:57;;;;;;;;;;;21.80;51.40;;;;;;5084042;28;20647;-67
2022/01/08 02:57:22;;;;;;;;;;;21.70;51.30;;;;;;5082843;28;19912;-69
2022/01/08 02:59:48;;;;;;;;;;;21.70;51.40;;;;;;5082920;28;20003;-68
2022/01/08 03:02:14;;;;;;;;;;;21.70;51.40;;;;;;5083065;28;20005;-69
2022/01/08 03:04:39;;;;;;;;;;;21.70;51.30;;;;;;5084670;28;19952;-69
2022/01/08 03:07:05;;;;;;;;;;;21.70;51.30;;;;;;5081430;28;19959;-67
2022/01/08 03:09:34;;;;;;;;;;;21.70;51.30;;;;;;5081688;28;20034;-68
2022/01/08 03:11:59;;;;;;;;;;;21.70;51.40;;;;;;5082176;28;19993;-69
2022/01/08 03:14:25;;;;;;;;;;;21.70;51.40;;;;;;5084077;28;19954;-68
2022/01/08 03:16:50;;;;;;;;;;;21.60;51.40;;;;;;5084170;28;19923;-68
2022/01/08 03:19:16;;;;;;;;;;;21.70;51.60;;;;;;5082690;28;19920;-68
2022/01/08 03:21:44;;;;;;;;;;;21.70;51.50;;;;;;5083408;28;20057;-68
2022/01/08 03:24:14;;;;;;;;;;;21.60;51.50;;;;;;5081463;28;20038;-68
2022/01/08 03:26:39;;;;;;;;;;;21.60;51.60;;;;;;5079028;28;20222;-68
2022/01/08 03:29:05;;;;;;;;;;;21.60;51.70;;;;;;5080694;28;20003;-68
2022/01/08 03:31:30;;;;;;;;;;;21.50;51.70;;;;;;5081785;28;20606;-67
2022/01/08 03:33:56;;;;;;;;;;;21.50;51.70;;;;;;5086563;28;20561;-69
2022/01/08 03:36:22;;;;;;;;;;;21.50;51.70;;;;;;5083397;28;19971;-68
2022/01/08 03:38:48;;;;;;;;;;;21.50;51.70;;;;;;5084190;28;19938;-68
2022/01/08 03:41:14;;;;;;;;;;;21.50;51.70;;;;;;5082360;28;19912;-69
2022/01/08 03:43:40;;;;;;;;;;;21.50;51.70;;;;;;5083450;28;19966;-69
2022/01/08 03:46:05;;;;;;;;;;;21.50;51.60;;;;;;5077948;28;20291;-68
2022/01/08 03:48:43;;;;;;;;;;;21.50;51.70;;;;;;5085343;28;20681;-68
2022/01/08 03:51:10;;;;;;;;;;;21.40;51.60;;;;;;5086621;28;20252;-67
2022/01/08 03:53:41;;;;;;;;;;;21.40;51.70;;;;;;5079312;28;20367;-69
2022/01/08 03:56:06;;;;;;;;;;;21.40;51.70;;;;;;5078337;28;19952;-68
2022/01/08 03:58:32;;;;;;;;;;;21.50;51.80;;;;;;5084317;28;19966;-69
2022/01/08 04:00:57;;;;;;;;;;;21.50;51.80;;;;;;5081381;28;19927;-69
2022/01/08 04:03:23;;;;;;;;;;;21.40;51.70;;;;;;5083564;28;19958;-68
2022/01/08 04:05:49;;;;;;;;;;;21.40;51.80;;;;;;5084901;28;19916;-68
2022/01/08 04:08:16;;;;;;;;;;;21.40;51.80;;;;;;5087482;28;19946;-69
2022/01/08 04:10:42;;;;;;;;;;;21.40;51.90;;;;;;5078153;28;19919;-69
2022/01/08 04:13:18;;;;;;;;;;;21.40;52.00;;;;;;5080584;28;19916;-69
2022/01/08 04:15:46;;;;;;;;;;;21.40;52.00;;;;;;5084075;28;20321;-69
2022/01/08 04:18:11;;;;;;;;;;;21.40;52.00;;;;;;5080246;28;19959;-68
2022/01/08 04:23:33;;;;;;;;;;;21.30;52.00;;;;;;5045647;28;19913;-68
2022/01/08 04:25:59;;;;;;;;;;;21.30;52.00;;;;;;5084743;28;19912;-68
2022/01/08 04:28:24;;;;;;;;;;;21.30;52.00;;;;;;5081056;28;19924;-69
2022/01/08 04:30:50;;;;;;;;;;;21.30;52.00;;;;;;5081925;28;20440;-68
2022/01/08 04:33:15;;;;;;;;;;;21.30;52.00;;;;;;5082407;28;19912;-68
2022/01/08 04:35:41;;;;;;;;;;;21.30;52.10;;;;;;5078508;28;19981;-68
2022/01/08 04:38:06;;;;;;;;;;;21.30;52.10;;;;;;5082347;28;20407;-69
2022/01/08 04:40:32;;;;;;;;;;;21.30;52.10;;;;;;5077319;28;19912;-69
2022/01/08 04:42:59;;;;;;;;;;;21.40;52.10;;;;;;5082538;28;20290;-69
2022/01/08 04:45:28;;;;;;;;;;;21.40;52.10;;;;;;5082855;28;20247;-69
2022/01/08 04:47:54;;;;;;;;;;;21.30;52.00;;;;;;5079488;28;20285;-69
2022/01/08 04:50:19;;;;;;;;;;;21.30;52.10;;;;;;5084000;28;19912;-67
2022/01/08 04:52:44;;;;;;;;;;;21.30;52.10;;;;;;5077696;28;19912;-68
2022/01/08 04:55:10;;;;;;;;;;;21.20;52.10;;;;;;5082474;28;20356;-68
2022/01/08 04:57:36;;;;;;;;;;;21.30;52.20;;;;;;5084700;28;19916;-68
2022/01/08 05:00:02;;;;;;;;;;;21.20;52.20;;;;;;5083722;28;19973;-68
2022/01/08 05:02:28;;;;;;;;;;;21.20;52.20;;;;;;5079760;28;20011;-69
2022/01/08 05:04:53;;;;;;;;;;;21.20;52.20;;;;;;5083359;28;19999;-68
2022/01/08 05:07:19;;;;;;;;;;;21.20;52.20;;;;;;5084973;28;20283;-69
2022/01/08 05:09:44;;;;;;;;;;;21.20;52.20;;;;;;5081766;28;19920;-69
2022/01/08 05:12:10;;;;;;;;;;;21.10;52.20;;;;;;5085141;28;19916;-69
2022/01/08 05:14:35;;;;;;;;;;;21.20;52.20;;;;;;5086351;28;20290;-69
2022/01/08 05:17:02;;;;;;;;;;;21.10;52.20;;;;;;5086647;28;20279;-68
2022/01/08 05:19:42;;;;;;;;;;;21.10;52.30;;;;;;5088124;28;19916;-69
2022/01/08 05:22:17;;;;;;;;;;;21.20;52.30;;;;;;5084483;28;20356;-69
2022/01/08 05:24:43;;;;;;;;;;;21.20;52.30;;;;;;5081167;28;20421;-68
2022/01/08 05:27:12;;;;;;;;;;;21.20;52.30;;;;;;5087090;28;19999;-68
2022/01/08 05:29:38;;;;;;;;;;;21.20;52.30;;;;;;5083044;28;19912;-69
2022/01/08 05:32:03;;;;;;;;;;;21.20;52.20;;;;;;5084036;28;19927;-68
2022/01/08 05:34:29;;;;;;;;;;;21.20;52.20;;;;;;5085905;28;19916;-68
2022/01/08 05:36:54;;;;;;;;;;;21.20;52.70;;;;;;5088147;28;19916;-67
2022/01/08 05:39:20;;;;;;;;;;;21.20;52.20;;;;;;5087297;28;19924;-69
2022/01/08 05:41:46;;;;;;;;;;;21.20;52.30;;;;;;5082776;28;19920;-69
2022/01/08 05:44:11;;;;;;;;;;;21.20;52.30;;;;;;5086599;28;20161;-69
2022/01/08 05:46:39;;;;;;;;;;;21.10;52.20;;;;;;5083788;28;20705;-69
2022/01/08 05:49:05;;;;;;;;;;;21.10;52.30;;;;;;5084356;28;20161;-69
2022/01/08 05:51:30;;;;;;;;;;;21.10;52.30;;;;;;5086527;28;19926;-68
2022/01/08 05:53:56;;;;;;;;;;;21.10;52.30;;;;;;5079881;28;20007;-68
2022/01/08 05:56:21;;;;;;;;;;;21.10;52.30;;;;;;5082956;28;19916;-69
2022/01/08 05:58:47;;;;;;;;;;;21.10;52.30;;;;;;5086994;28;20010;-67
2022/01/08 06:01:12;;;;;;;;;;;21.10;52.30;;;;;;5083061;28;19973;-68
2022/01/08 06:03:38;;;;;;;;;;;21.10;52.30;;;;;;5085782;28;19923;-68
2022/01/08 06:06:03;;;;;;;;;;;21.00;52.30;;;;;;5081671;28;20262;-69
2022/01/08 06:08:29;;;;;;;;;;;21.00;52.30;;;;;;5079911;28;19965;-68
2022/01/08 06:10:54;;;;;;;;;;;21.10;52.40;;;;;;5083910;28;19955;-68
2022/01/08 06:13:20;;;;;;;;;;;21.00;52.30;;;;;;5081011;28;19930;-69
2022/01/08 06:15:45;;;;;;;;;;;21.10;52.40;;;;;;5083236;28;19942;-68
2022/01/08 06:18:10;;;;;;;;;;;21.10;52.30;;;;;;5085879;28;20358;-68
2022/01/08 06:20:36;;;;;;;;;;;21.10;52.30;;;;;;5083477;28;19985;-68
2022/01/08 06:23:01;;;;;;;;;;;21.10;52.20;;;;;;5081734;28;20353;-69
2022/01/08 06:25:29;;;;;;;;;;;21.10;52.20;;;;;;5080508;28;20259;-68
2022/01/08 06:27:55;;;;;;;;;;;21.10;52.20;;;;;;5077956;28;19922;-68
2022/01/08 06:30:20;;;;;;;;;;;21.10;52.20;;;;;;5085654;28;19920;-69
2022/01/08 06:32:46;;;;;;;;;;;21.10;52.30;;;;;;5084481;28;19920;-68
2022/01/08 06:35:11;;;;;;;;;;;21.10;52.20;;;;;;5086808;28;20407;-69
2022/01/08 06:37:40;;;;;;;;;;;21.00;52.20;;;;;;5085588;28;20254;-68
2022/01/08 06:40:05;;;;;;;;;;;21.00;52.20;;;;;;5082969;28;20338;-68
2022/01/08 06:42:31;;;;;;;;;;;21.00;52.10;;;;;;5085487;28;19962;-68
2022/01/08 06:44:56;;;;;;;;;;;21.00;52.10;;;;;;5088628;28;19962;-69
2022/01/08 06:47:22;;;;;;;;;;;20.90;52.10;;;;;;5087766;28;19912;-68
2022/01/08 06:49:47;;;;;;;;;;;21.00;52.20;;;;;;5084439;28;19916;-67
2022/01/08 06:52:13;;;;;;;;;;;20.90;52.10;;;;;;5086254;28;19912;-69
2022/01/08 06:54:38;;;;;;;;;;;21.00;52.10;;;;;;5081424;28;19934;-69
2022/01/08 06:57:04;;;;;;;;;;;20.90;52.10;;;;;;5084194;28;19973;-68
2022/01/08 06:59:29;;;;;;;;;;;20.90;52.10;;;;;;5080098;28;19928;-68
2022/01/08 07:01:55;;;;;;;;;;;21.00;52.20;;;;;;5081813;28;19916;-69
2022/01/08 07:04:20;;;;;;;;;;;21.00;52.20;;;;;;5082137;28;20347;-68
2022/01/08 07:06:46;;;;;;;;;;;21.00;52.10;;;;;;5084284;28;19928;-67
2022/01/08 07:09:11;;;;;;;;;;;21.00;52.10;;;;;;5082815;28;20577;-69
2022/01/08 07:11:37;;;;;;;;;;;21.00;52.10;;;;;;5080501;28;20204;-69
2022/01/08 07:14:02;;;;;;;;;;;21.00;52.00;;;;;;5082581;28;19920;-67
2022/01/08 07:16:28;;;;;;;;;;;21.00;52.00;;;;;;5084281;28;19919;-68
2022/01/08 07:18:53;;;;;;;;;;;21.00;52.00;;;;;;5080958;28;19920;-68
2022/01/08 07:21:19;;;;;;;;;;;21.00;52.00;;;;;;5082646;28;20429;-68
2022/01/08 07:23:44;;;;;;;;;;;21.00;52.00;;;;;;5081098;28;19913;-68
2022/01/08 07:26:10;;;;;;;;;;;20.90;52.00;;;;;;5076657;28;19920;-68
2022/01/08 07:28:35;;;;;;;;;;;20.90;51.90;;;;;;5076169;28;19920;-68
2022/01/08 07:31:01;;;;;;;;;;;20.90;51.90;;;;;;5082339;28;20717;-68
2022/01/08 07:33:26;;;;;;;;;;;20.90;51.90;;;;;;5085578;28;19999;-68
2022/01/08 07:35:52;;;;;;;;;;;20.90;51.90;;;;;;5083614;28;19916;-69
2022/01/08 07:38:17;;;;;;;;;;;20.90;52.00;;;;;;5084012;28;19920;-68
2022/01/08 07:40:43;;;;;;;;;;;20.80;51.90;;;;;;5080571;28;19916;-68
2022/01/08 07:43:08;;;;;;;;;;;20.80;52.00;;;;;;5082895;28;19924;-68
2022/01/08 07:45:34;;;;;;;;;;;20.90;52.00;;;;;;5083201;28;20037;-69
2022/01/08 07:47:59;;;;;;;;;;;20.90;52.00;;;;;;5082562;28;19916;-68
2022/01/08 07:50:25;;;;;;;;;;;20.90;52.00;;;;;;5081258;28;19912;-69
2022/01/08 07:52:50;;;;;;;;;;;20.90;52.00;;;;;;5078341;28;20386;-68
2022/01/08 07:55:16;;;;;;;;;;;20.90;51.90;;;;;;5078485;28;19947;-68
2022/01/08 07:57:41;;;;;;;;;;;20.90;51.90;;;;;;5081103;28;19963;-67
2022/01/08 08:00:08;;;;;;;;;;;20.90;51.90;;;;;;5079745;28;19998;-69
2022/01/08 08:02:33;;;;;;;;;;;20.90;51.90;;;;;;5084564;28;19912;-69
2022/01/08 08:04:59;;;;;;;;;;;20.90;52.00;;;;;;5078671;28;19927;-69
2022/01/08 08:07:26;;;;;;;;;;;20.90;51.90;;;;;;5077807;28;19920;-69
2022/01/08 08:09:55;;;;;;;;;;;20.90;51.90;;;;;;5074053;28;19952;-69
2022/01/08 08:12:20;;;;;;;;;;;20.80;51.90;;;;;;5077412;28;19916;-69
2022/01/08 08:14:46;;;;;;;;;;;20.80;51.90;;;;;;5080320;28;20205;-69
2022/01/08 08:17:11;;;;;;;;;;;20.80;51.90;;;;;;5078268;28;19916;-68
2022/01/08 08:19:37;;;;;;;;;;;20.80;51.80;;;;;;5079744;28;20643;-69
2022/01/08 08:22:02;;;;;;;;;;;20.80;51.70;;;;;;5080163;28;19916;-69
2022/01/08 08:24:28;;;;;;;;;;;20.80;51.70;;;;;;5080398;28;20453;-69
2022/01/08 08:26:53;;;;;;;;;;;20.80;51.50;;;;;;5074028;28;19916;-68
2022/01/08 08:29:19;;;;;;;;;;;20.90;51.30;;;;;;5071737;28;19923;-69
2022/01/08 08:31:44;;;;;;;;;;;20.90;51.10;;;;;;5096068;28;19946;-69
2022/01/08 08:34:10;;;;;;;;;;;20.90;51.00;;;;;;5084580;28;19916;-69
2022/01/08 08:36:35;;;;;;;;;;;20.90;51.00;;;;;;5081686;28;19924;-68
2022/01/08 08:39:01;;;;;;;;;;;20.90;51.10;;;;;;5083611;28;19920;-69
2022/01/08 08:41:26;;;;;;;;;;;20.90;51.60;;;;;;5080917;28;19994;-69
2022/01/08 08:43:52;;;;;;;;;;;20.90;51.10;;;;;;5082850;28;19912;-69
2022/01/08 08:46:17;;;;;;;;;;;20.80;51.10;;;;;;5080908;28;19966;-68
2022/01/08 08:48:44;;;;;;;;;;;20.80;51.10;;;;;;5086773;28;20011;-68
2022/01/08 08:51:10;;;;;;;;;;;20.80;51.10;;;;;;5081150;28;20440;-69
2022/01/08 08:53:35;;;;;;;;;;;20.80;51.10;;;;;;5083196;28;19916;-69
2022/01/08 08:56:01;;;;;;;;;;;20.80;51.20;;;;;;5081078;28;19924;-69
2022/01/08 08:58:27;;;;;;;;;;;20.80;51.20;;;;;;5085447;28;20398;-69
2022/01/08 09:00:52;;;;;;;;;;;20.80;51.30;;;;;;5081988;28;19916;-69
2022/01/08 09:03:18;;;;;;;;;;;20.80;51.30;;;;;;5082941;28;19941;-67
2022/01/08 09:05:43;;;;;;;;;;;20.80;51.30;;;;;;5081189;28;19916;-69
2022/01/08 09:08:09;;;;;;;;;;;20.80;51.30;;;;;;5077566;28;19927;-69
2022/01/08 09:10:34;;;;;;;;;;;20.80;51.20;;;;;;5080322;28;19924;-68
2022/01/08 09:13:00;;;;;;;;;;;20.80;51.20;;;;;;5081222;28;20077;-68
2022/01/08 09:15:26;;;;;;;;;;;20.80;51.20;;;;;;5081596;28;20012;-69
2022/01/08 09:17:56;;;;;;;;;;;20.80;51.30;;;;;;5082018;28;19924;-67
2022/01/08 09:20:21;;;;;;;;;;;20.80;51.30;;;;;;5083573;28;20232;-68
2022/01/08 09:22:47;;;;;;;;;;;20.80;51.30;;;;;;5081481;28;19981;-69
2022/01/08 09:25:12;;;;;;;;;;;20.80;51.30;;;;;;5083026;28;19959;-69
2022/01/08 09:27:38;;;;;;;;;;;20.80;51.40;;;;;;5083637;28;20425;-68
2022/01/08 09:30:06;;;;;;;;;;;20.80;51.40;;;;;;5078198;28;19953;-70
2022/01/08 09:32:32;;;;;;;;;;;20.80;51.90;;;;;;5079396;28;19916;-69
2022/01/08 09:34:58;;;;;;;;;;;20.80;51.40;;;;;;5082429;28;20311;-69
2022/01/08 09:37:23;;;;;;;;;;;20.80;51.50;;;;;;5082251;28;19912;-68
2022/01/08 09:39:49;;;;;;;;;;;20.70;51.50;;;;;;5075788;28;20732;-68
2022/01/08 09:42:14;;;;;;;;;;;20.70;51.50;;;;;;5084266;28;19923;-68
2022/01/08 09:44:44;;;;;;;;;;;20.70;51.50;;;;;;5081899;28;19924;-68
2022/01/08 09:47:10;;;;;;;;;;;20.70;51.50;;;;;;5081435;28;19927;-68
2022/01/08 09:49:36;;;;;;;;;;;20.70;51.60;;;;;;5082271;28;19915;-69
2022/01/08 09:52:03;;;;;;;;;;;20.70;51.60;;;;;;5075950;28;19951;-69
2022/01/08 09:54:29;;;;;;;;;;;20.70;51.60;;;;;;5076729;28;19916;-67
2022/01/08 09:56:55;;;;;;;;;;;20.70;51.70;;;;;;5075517;28;19916;-69
2022/01/08 09:59:21;;;;;;;;;;;20.70;51.70;;;;;;5079844;28;20272;-68
2022/01/08 10:01:54;;;;;;;;;;;20.70;51.70;;;;;;5080643;28;19938;-68
2022/01/08 10:04:30;;;;;;;;;;;20.70;51.80;;;;;;5080259;28;20295;-68
2022/01/08 10:07:15;;;;;;;;;;;20.70;51.80;;;;;;5077132;28;20010;-69
2022/01/08 10:09:59;;;;;;;;;;;20.60;51.70;;;;;;5072001;28;20047;-69
2022/01/08 10:12:44;;;;;;;;;;;20.60;51.80;;;;;;5078583;28;20310;-69
2022/01/08 10:17:55;;;;;;;;;;;20.60;51.90;;;;;;5076392;28;20011;-69
2022/01/08 10:20:28;;;;;;;;;;;20.60;51.90;;;;;;5081333;28;20006;-69
2022/01/08 10:23:15;;;;;;;;;;;20.60;51.90;;;;;;5077339;28;19912;-68
2022/01/08 10:25:41;;;;;;;;;;;20.60;51.90;;;;;;5074454;28;20263;-69
2022/01/08 10:28:06;;;;;;;;;;;20.60;52.00;;;;;;5069468;28;20702;-70
2022/01/08 10:30:32;;;;;;;;;;;20.60;52.40;;;;;;5074495;28;20049;-70
2022/01/08 10:32:58;;;;;;;;;;;20.80;52.50;;;;;;5074762;28;19965;-70
2022/01/08 10:35:42;;;;;;;;;;;20.90;52.30;;;;;;5073640;28;19931;-68
2022/01/08 10:38:08;;;;;;;;;;;21.00;52.00;;;;;;5072934;28;19920;-68
2022/01/08 10:40:34;;;;;;;;;;;21.20;51.50;;;;;;5074607;28;20385;-69
2022/01/08 10:43:00;;;;;;;;;;;21.40;51.40;;;;;;5070873;28;19979;-71
2022/01/08 10:45:25;;;;;;;;;;;21.40;51.60;;;;;;5073774;28;19916;-70
2022/01/08 10:48:11;;;;;;;;;;;21.50;51.10;;;;;;5073664;28;20344;-71
2022/01/08 10:50:36;;;;;;;;;;;21.50;51.10;;;;;;5074002;28;19916;-69
2022/01/08 10:53:03;;;;;;;;;;;21.60;50.90;;;;;;5075457;28;20350;-69
2022/01/08 10:55:30;;;;;;;;;;;21.70;50.70;;;;;;5071391;28;20398;-70
2022/01/08 10:57:55;;;;;;;;;;;21.80;50.40;;;;;;5073752;28;19920;-68
2022/01/08 11:00:28;;;;;;;;;;;21.90;50.30;;;;;;5069987;28;19931;-69
2022/01/08 11:02:54;;;;;;;;;;;22.00;50.00;;;;;;5075336;28;20225;-69
2022/01/08 11:05:19;;;;;;;;;;;22.10;49.80;;;;;;5072289;28;19981;-70
2022/01/08 11:07:45;;;;;;;;;;;22.20;49.60;;;;;;5075575;28;19916;-71
2022/01/08 11:10:16;;;;;;;;;;;22.30;49.50;;;;;;5066389;28;19920;-69
2022/01/08 11:12:44;;;;;;;;;;;22.50;49.30;;;;;;5073999;28;19943;-70
2022/01/08 11:17:44;;;;;;;;;;;22.60;48.90;;;;;;5069010;28;20011;-69
2022/01/08 11:20:09;;;;;;;;;;;22.70;48.80;;;;;;5068824;28;20632;-70
2022/01/08 11:22:36;;;;;;;;;;;22.80;48.60;;;;;;5073011;28;19920;-69
2022/01/08 11:25:02;;;;;;;;;;;22.80;48.40;;;;;;5067865;28;19920;-71
2022/01/08 11:27:53;;;;;;;;;;;22.90;48.30;;;;;;5076513;28;19916;-69
2022/01/08 11:30:21;;;;;;;;;;;22.80;48.20;;;;;;5069763;28;19920;-68
2022/01/08 11:32:48;;;;;;;;;;;22.80;48.40;;;;;;5071110;28;20375;-69
2022/01/08 11:35:14;;;;;;;;;;;22.70;48.40;;;;;;5073165;28;20356;-68
2022/01/08 11:37:46;;;;;;;;;;;22.70;49.10;;;;;;5074274;28;19927;-70
2022/01/08 11:40:12;;;;;;;;;;;22.70;48.60;;;;;;5070679;28;19920;-68
2022/01/08 11:42:38;;;;;;;;;;;22.60;48.60;;;;;;5075657;28;19920;-70
2022/01/08 11:45:05;;;;;;;;;;;22.60;48.70;;;;;;5070116;28;19916;-69
2022/01/08 11:47:31;;;;;;;;;;;22.60;48.90;;;;;;5073560;28;19925;-70
2022/01/08 11:50:01;;;;;;;;;;;22.60;48.90;;;;;;5070251;28;20465;-70
2022/01/08 11:52:26;;;;;;;;;;;22.60;48.90;;;;;;5071088;28;19916;-70
2022/01/08 11:54:52;;;;;;;;;;;22.60;48.90;;;;;;5074442;28;19927;-68
2022/01/08 11:57:21;;;;;;;;;;;22.60;48.80;;;;;;5077153;28;19947;-69
2022/01/08 11:59:48;;;;;;;;;;;22.60;48.80;;;;;;5067835;28;20303;-69
2022/01/08 12:02:14;;;;;;;;;;;22.60;49.40;;;;;;5070655;28;20014;-69
2022/01/08 12:04:41;;;;;;;;;;;22.60;49.00;;;;;;5072861;28;19951;-69
2022/01/08 12:07:24;;;;;;;;;;;22.60;48.80;;;;;;5077412;28;19920;-69
2022/01/08 12:10:02;;;;;;;;;;;22.60;48.80;;;;;;5074569;28;19916;-69
2022/01/08 12:12:46;;;;;;;;;;;22.60;48.80;;;;;;5080021;28;20007;-69
2022/01/08 12:15:13;;;;;;;;;;;22.60;48.80;;;;;;5080845;28;19922;-69
2022/01/08 12:17:51;;;;;;;;;;;22.60;48.90;;;;;;5095430;28;20072;-68
2022/01/08 12:20:37;;;;;;;;;;;22.60;48.70;;;;;;5074798;28;19916;-69
2022/01/08 12:23:21;;;;;;;;;;;22.60;48.60;;;;;;5072818;28;19927;-69
2022/01/08 12:25:47;;;;;;;;;;;22.60;48.60;;;;;;5075259;28;19920;-69
2022/01/08 12:28:32;;;;;;;;;;;22.60;48.50;;;;;;5078868;28;19923;-70
2022/01/08 12:31:17;;;;;;;;;;;22.60;48.30;;;;;;5078193;28;19927;-70
2022/01/08 12:33:43;;;;;;;;;;;22.50;48.40;;;;;;5076607;28;19924;-70
2022/01/08 12:36:31;;;;;;;;;;;22.60;48.50;;;;;;5079648;28;19928;-69
2022/01/08 12:39:01;;;;;;;;;;;22.60;48.50;;;;;;5079177;28;20019;-69
2022/01/08 12:41:26;;;;;;;;;;;22.60;48.70;;;;;;5080087;28;20612;-68
2022/01/08 12:43:53;;;;;;;;;;;22.60;48.70;;;;;;5084303;28;20142;-69
2022/01/08 12:46:25;;;;;;;;;;;22.60;48.80;;;;;;5082945;28;19916;-69
2022/01/08 12:49:02;;;;;;;;;;;22.60;48.50;;;;;;5086761;28;19927;-68
2022/01/08 12:51:46;;;;;;;;;;;22.60;48.70;;;;;;5081818;28;19955;-69
2022/01/08 12:54:13;;;;;;;;;;;22.60;48.70;;;;;;5081520;28;20397;-68
2022/01/08 12:56:49;;;;;;;;;;;22.50;49.10;;;;;;5085135;28;19916;-69
2022/01/08 12:59:14;;;;;;;;;;;22.60;48.70;;;;;;5083760;28;19916;-69
2022/01/08 13:01:46;;;;;;;;;;;22.50;48.70;;;;;;5082102;28;20356;-69
2022/01/08 13:04:16;;;;;;;;;;;22.50;48.60;;;;;;5079673;28;19912;-69
2022/01/08 13:06:42;;;;;;;;;;;22.50;48.60;;;;;;5079616;28;19912;-68
2022/01/08 13:09:08;;;;;;;;;;;22.50;48.50;;;;;;5084017;28;20053;-69
2022/01/08 13:11:36;;;;;;;;;;;22.50;48.60;;;;;;5081164;28;19965;-69
2022/01/08 13:14:09;;;;;;;;;;;22.50;48.60;;;;;;5080379;28;19920;-69
2022/01/08 13:16:42;;;;;;;;;;;22.40;48.60;;;;;;5082171;28;20282;-69
2022/01/08 13:19:08;;;;;;;;;;;22.40;48.60;;;;;;5078557;28;20232;-69
2022/01/08 13:21:45;;;;;;;;;;;22.40;48.70;;;;;;5083922;28;19927;-68
2022/01/08 13:24:11;;;;;;;;;;;22.40;48.80;;;;;;5080790;28;20347;-68
2022/01/08 13:26:40;;;;;;;;;;;22.40;48.80;;;;;;5081471;28;20292;-69
2022/01/08 13:29:28;;;;;;;;;;;22.40;49.00;;;;;;5081982;28;19912;-68
2022/01/08 13:31:57;;;;;;;;;;;22.30;48.90;;;;;;5082372;28;20330;-69
2022/01/08 13:34:23;;;;;;;;;;;22.30;48.90;;;;;;5084361;28;19916;-68
2022/01/08 13:36:53;;;;;;;;;;;22.30;49.00;;;;;;5083741;28;19920;-68
2022/01/08 13:39:38;;;;;;;;;;;22.30;49.10;;;;;;5081061;28;19927;-68
2022/01/08 13:42:10;;;;;;;;;;;22.30;49.20;;;;;;5098018;28;20006;-68
2022/01/08 13:44:39;;;;;;;;;;;22.20;49.10;;;;;;5083059;28;19916;-68
2022/01/08 13:47:15;;;;;;;;;;;22.20;49.20;;;;;;5085792;28;19916;-68
2022/01/08 13:49:41;;;;;;;;;;;22.20;49.20;;;;;;5073311;28;19986;-68
2022/01/08 13:52:15;;;;;;;;;;;22.20;49.30;;;;;;5086300;28;19912;-68
2022/01/08 13:54:41;;;;;;;;;;;22.20;49.30;;;;;;5080352;28;20564;-69
2022/01/08 13:57:14;;;;;;;;;;;22.10;49.30;;;;;;5085802;28;19955;-69
2022/01/08 13:59:39;;;;;;;;;;;22.10;49.40;;;;;;5078986;28;19912;-68
2022/01/08 14:02:05;;;;;;;;;;;22.10;49.30;;;;;;5075852;28;19927;-69
2022/01/08 14:04:30;;;;;;;;;;;22.10;49.40;;;;;;5083905;28;19916;-68
2022/01/08 14:06:57;;;;;;;;;;;22.10;49.40;;;;;;5085635;28;19920;-69
2022/01/08 14:09:22;;;;;;;;;;;22.10;49.50;;;;;;5082280;28;19991;-69
2022/01/08 14:11:49;;;;;;;;;;;22.10;49.50;;;;;;5083958;28;20010;-68
2022/01/08 14:14:19;;;;;;;;;;;22.10;49.50;;;;;;5083672;28;19919;-68
2022/01/08 14:16:46;;;;;;;;;;;22.10;49.60;;;;;;5082255;28;19985;-69
2022/01/08 14:19:19;;;;;;;;;;;22.10;49.60;;;;;;5097436;28;20325;-69
2022/01/08 14:21:58;;;;;;;;;;;22.00;49.70;;;;;;5077933;28;20375;-68
2022/01/08 14:24:24;;;;;;;;;;;22.00;49.60;;;;;;5078043;28;19942;-68
2022/01/08 14:27:05;;;;;;;;;;;22.00;49.70;;;;;;5080176;28;19917;-68
2022/01/08 14:29:31;;;;;;;;;;;22.00;49.70;;;;;;5082877;28;19912;-68
2022/01/08 14:31:58;;;;;;;;;;;22.00;49.70;;;;;;5081519;28;19998;-68
2022/01/08 14:34:24;;;;;;;;;;;21.90;49.80;;;;;;5079311;28;19916;-68
2022/01/08 14:36:52;;;;;;;;;;;21.90;49.80;;;;;;5081539;28;19947;-69
2022/01/08 14:39:30;;;;;;;;;;;21.90;49.80;;;;;;5076439;28;19920;-68
2022/01/08 14:41:57;;;;;;;;;;;21.90;49.80;;;;;;5078923;28;19920;-69
2022/01/08 14:44:23;;;;;;;;;;;21.90;50.30;;;;;;5081652;28;20018;-68